TAF LFLB
LFLB 270800Z 2709/2809 18009KT 9999 FEW030 BKN050 TEMPO 2709/2711 -RA TEMPO 2711/2716 SHRA SCT030TCU BECMG 2721/2723 -SNRA OVC025 BECMG 2800/2802 4000 SNRA OVC005 TEMPO 2804/2809 0900 SN=
METAR LFLB
LFLB 270900Z AUTO 20010KT 180V260 9999 FEW046 BKN058 BKN076 03/02 Q0995 NOSIG=
LFLB 270830Z AUTO 20010KT 9999 FEW032 SCT054 BKN066 03/02 Q0995 NOSIG=
LFLB 270800Z AUTO 19010KT 9999 FEW031 SCT048 BKN160 03/01 Q0995 NOSIG=
LFLB 270730Z AUTO 19011KT 9999 FEW048 OVC160 03/01 Q0994 NOSIG=
LFLB 270700Z AUTO 20009KT 180V240 9999 FEW044 SCT050 OVC160 02/01 Q0994 TEMPO 4500 -RA BKN014=
WC LFLB
WS LFLB
WV LFLB